Time;durP1;ratioP1;P1;durP2;ratioP2;P2;SDS_P1;SDS_P2;PMS_P1;PMS_P2;Temp;Humidity;BMP_temperature;BMP_pressure;BME280_temperature;BME280_humidity;BME280_pressure;Samples;Min_cycle;Max_cycle;Signal;HPM_P1;HPM_P2
2023/03/09 00:01:31;;;;;;;24.90;13.40;;;2.20;99.90;;;;;;5037401;28;20500;-73
2023/03/09 00:03:57;;;;;;;25.08;12.43;;;2.10;99.90;;;;;;5023920;28;20037;-74
2023/03/09 00:06:23;;;;;;;21.67;11.50;;;1.70;99.90;;;;;;5052564;28;20043;-73
2023/03/09 00:08:49;;;;;;;22.55;11.85;;;1.70;99.90;;;;;;5054069;28;20674;-72
2023/03/09 00:11:16;;;;;;;21.58;10.93;;;1.70;99.90;;;;;;5051609;28;20711;-74
2023/03/09 00:13:43;;;;;;;21.80;10.70;;;1.70;99.90;;;;;;5032469;28;20119;-72
2023/03/09 00:16:15;;;;;;;20.40;11.45;;;1.70;99.90;;;;;;5054863;28;20044;-73
2023/03/09 00:18:41;;;;;;;23.20;10.65;;;1.70;99.90;;;;;;5036869;28;20426;-73
2023/03/09 00:21:07;;;;;;;22.08;10.57;;;1.70;99.90;;;;;;5040002;28;20746;-73
2023/03/09 00:23:36;;;;;;;21.27;10.65;;;1.70;99.90;;;;;;5040214;28;20053;-72
2023/03/09 00:26:06;;;;;;;23.10;10.68;;;1.80;99.90;;;;;;5058392;28;20041;-73
2023/03/09 00:28:33;;;;;;;21.33;10.60;;;1.80;99.90;;;;;;5045470;28;20064;-72
2023/03/09 00:31:04;;;;;;;21.30;11.27;;;1.70;99.90;;;;;;5061858;28;20044;-74
2023/03/09 00:33:30;;;;;;;21.52;10.85;;;2.50;99.90;;;;;;5060241;28;20036;-74
2023/03/09 00:35:56;;;;;;;21.58;11.23;;;2.10;99.90;;;;;;5040770;28;20070;-72
2023/03/09 00:38:22;;;;;;;21.73;11.65;;;1.70;99.90;;;;;;5058476;28;20102;-73
2023/03/09 00:40:48;;;;;;;22.50;10.80;;;1.70;99.90;;;;;;5023092;28;20060;-72
2023/03/09 00:43:13;;;;;;;20.90;10.98;;;1.90;99.90;;;;;;5057976;28;20401;-72
2023/03/09 00:45:39;;;;;;;24.30;12.00;;;1.70;99.90;;;;;;5042312;28;20052;-73
2023/03/09 00:48:05;;;;;;;21.33;11.48;;;1.70;99.90;;;;;;5043173;28;20051;-73
2023/03/09 00:50:30;;;;;;;20.33;10.60;;;1.70;99.90;;;;;;5028188;28;20718;-73
2023/03/09 00:52:57;;;;;;;20.20;10.00;;;1.70;99.90;;;;;;5052903;28;20040;-73
2023/03/09 00:55:22;;;;;;;19.92;10.43;;;1.60;99.90;;;;;;5044286;28;20075;-73
2023/03/09 00:57:48;;;;;;;21.20;10.75;;;1.70;99.90;;;;;;5057545;28;20632;-73
2023/03/09 01:00:14;;;;;;;18.98;9.77;;;1.60;99.90;;;;;;5058732;28;20041;-73
2023/03/09 01:02:40;;;;;;;17.88;9.82;;;1.60;99.90;;;;;;5044348;28;20045;-72
2023/03/09 01:05:06;;;;;;;20.77;10.52;;;1.60;99.90;;;;;;5057938;28;20048;-73
2023/03/09 01:07:34;;;;;;;20.05;11.02;;;1.60;99.90;;;;;;5026874;28;20057;-73
2023/03/09 01:10:00;;;;;;;21.17;10.57;;;1.50;99.90;;;;;;5042375;28;20037;-73
2023/03/09 01:12:26;;;;;;;18.85;10.15;;;2.50;99.90;;;;;;5037864;28;20054;-73
2023/03/09 01:14:56;;;;;;;20.02;10.25;;;1.50;99.90;;;;;;5042471;28;20040;-73
2023/03/09 01:17:22;;;;;;;22.52;10.88;;;1.50;99.90;;;;;;5039184;28;20047;-73
2023/03/09 01:19:47;;;;;;;20.35;10.52;;;1.80;99.90;;;;;;5061131;28;21752;-73
2023/03/09 01:22:13;;;;;;;23.73;10.98;;;1.40;99.90;;;;;;5039194;28;20044;-73
2023/03/09 01:24:39;;;;;;;23.05;10.95;;;1.40;99.90;;;;;;5040881;28;20172;-73
2023/03/09 01:27:06;;;;;;;19.92;10.85;;;1.40;99.90;;;;;;5043764;28;20178;-73
2023/03/09 01:29:32;;;;;;;19.73;10.75;;;1.40;99.90;;;;;;5027540;28;20064;-73
2023/03/09 01:31:58;;;;;;;19.63;11.15;;;1.40;99.90;;;;;;5040514;28;20055;-73
2023/03/09 01:34:24;;;;;;;21.10;10.73;;;1.40;99.90;;;;;;5016027;28;20071;-73
2023/03/09 01:36:50;;;;;;;18.65;10.57;;;1.40;99.90;;;;;;5039651;28;20295;-74
2023/03/09 01:39:16;;;;;;;17.70;10.60;;;1.80;99.90;;;;;;5044887;28;20472;-74
2023/03/09 01:41:41;;;;;;;17.67;10.13;;;1.50;99.90;;;;;;5057481;28;20137;-74
2023/03/09 01:44:14;;;;;;;19.52;10.43;;;1.70;99.90;;;;;;5040196;28;20044;-73
2023/03/09 01:46:50;;;;;;;21.73;10.98;;;1.30;99.90;;;;;;5044049;28;20051;-73
2023/03/09 01:49:34;;;;;;;20.13;10.93;;;1.20;99.90;;;;;;5039563;28;20048;-74
2023/03/09 01:52:05;;;;;;;20.95;10.90;;;1.20;99.90;;;;;;5056149;28;20045;-73
2023/03/09 01:54:50;;;;;;;22.13;10.80;;;1.20;99.90;;;;;;5039438;28;20033;-73
2023/03/09 01:57:27;;;;;;;20.88;11.65;;;1.10;99.90;;;;;;5042472;28;20048;-73
2023/03/09 01:59:58;;;;;;;21.80;11.45;;;1.10;99.90;;;;;;5040510;28;20134;-73
2023/03/09 02:02:28;;;;;;;20.42;9.95;;;1.10;99.90;;;;;;5054588;28;20053;-73
2023/03/09 02:04:59;;;;;;;20.48;10.70;;;1.80;99.90;;;;;;5035856;28;20523;-73
2023/03/09 02:07:27;;;;;;;20.92;10.90;;;1.20;99.90;;;;;;5056681;28;20086;-73
2023/03/09 02:10:03;;;;;;;19.92;11.02;;;1.50;99.90;;;;;;5040968;28;20139;-73
2023/03/09 02:12:28;;;;;;;20.42;10.27;;;1.00;99.90;;;;;;5042996;28;20048;-74
2023/03/09 02:14:55;;;;;;;22.42;11.57;;;1.00;99.90;;;;;;5043092;28;20044;-73
2023/03/09 02:17:22;;;;;;;21.50;11.25;;;0.90;99.90;;;;;;5025613;28;20059;-74
2023/03/09 02:20:01;;;;;;;23.38;11.82;;;1.20;99.90;;;;;;5040247;28;20037;-73
2023/03/09 02:22:26;;;;;;;19.77;10.93;;;0.90;99.90;;;;;;5055601;28;20117;-73
2023/03/09 02:25:17;;;;;;;24.40;11.77;;;1.00;99.90;;;;;;5059325;28;20139;-74
2023/03/09 02:27:43;;;;;;;20.63;11.07;;;0.90;99.90;;;;;;5058301;28;20158;-74
2023/03/09 02:30:11;;;;;;;23.65;11.82;;;0.80;99.90;;;;;;5026725;28;20136;-74
2023/03/09 02:32:37;;;;;;;23.48;11.80;;;0.80;99.90;;;;;;5052487;28;20422;-74
2023/03/09 02:35:04;;;;;;;25.38;12.02;;;0.80;99.90;;;;;;5055095;28;20040;-74
2023/03/09 02:37:35;;;;;;;23.48;11.85;;;0.80;99.90;;;;;;5057507;28;20438;-74
2023/03/09 02:40:14;;;;;;;24.77;12.82;;;0.90;99.90;;;;;;5055523;28;20054;-74
2023/03/09 02:42:42;;;;;;;26.38;12.05;;;0.80;99.90;;;;;;5053980;28;20041;-74
2023/03/09 02:45:11;;;;;;;29.27;12.82;;;0.70;99.90;;;;;;5025073;28;20127;-74
2023/03/09 02:47:38;;;;;;;26.17;12.20;;;0.70;99.90;;;;;;5037601;28;20048;-74
2023/03/09 02:50:09;;;;;;;25.45;11.75;;;1.20;99.90;;;;;;5042338;28;20138;-72
2023/03/09 02:52:36;;;;;;;28.30;11.75;;;0.70;99.90;;;;;;5026900;28;20703;-72
2023/03/09 02:55:03;;;;;;;24.77;12.57;;;0.70;99.90;;;;;;5055191;28;20069;-74
2023/03/09 02:57:28;;;;;;;26.95;13.20;;;0.60;99.90;;;;;;5039350;28;20056;-73
2023/03/09 02:59:54;;;;;;;27.23;12.85;;;0.70;99.90;;;;;;5055331;28;20048;-73
2023/03/09 03:02:20;;;;;;;23.45;12.30;;;0.60;99.90;;;;;;5039949;28;20401;-73
2023/03/09 03:04:46;;;;;;;25.38;12.45;;;0.70;99.90;;;;;;5052064;28;20044;-72
2023/03/09 03:07:12;;;;;;;27.20;12.73;;;0.60;99.90;;;;;;5042416;28;20118;-72
2023/03/09 03:09:37;;;;;;;29.05;13.10;;;0.60;99.90;;;;;;5055857;28;20494;-74
2023/03/09 03:12:03;;;;;;;25.55;13.02;;;0.60;99.90;;;;;;5056048;28;20124;-73
2023/03/09 03:14:29;;;;;;;28.65;14.82;;;0.70;99.90;;;;;;5035047;28;20042;-73
2023/03/09 03:16:55;;;;;;;28.17;13.30;;;0.70;99.90;;;;;;5039460;28;20066;-73
2023/03/09 03:19:21;;;;;;;27.80;13.30;;;0.70;99.90;;;;;;5037580;28;21034;-72
2023/03/09 03:21:48;;;;;;;31.60;14.50;;;0.70;99.90;;;;;;5058345;28;20037;-74
2023/03/09 03:24:15;;;;;;;30.05;14.50;;;0.70;99.90;;;;;;5039401;28;20141;-73
2023/03/09 03:26:40;;;;;;;30.23;14.15;;;0.80;99.90;;;;;;5040247;28;20128;-73
2023/03/09 03:29:07;;;;;;;28.42;13.38;;;0.70;99.90;;;;;;5056212;28;20191;-72
2023/03/09 03:31:33;;;;;;;29.08;14.57;;;0.90;99.90;;;;;;5037759;28;20072;-75
2023/03/09 03:33:58;;;;;;;31.40;14.35;;;0.60;99.90;;;;;;5052507;28;20595;-73
2023/03/09 03:36:24;;;;;;;28.77;13.90;;;0.60;99.90;;;;;;5038549;28;20076;-74
2023/03/09 03:38:50;;;;;;;28.48;14.07;;;0.60;99.90;;;;;;5038745;28;20044;-72
2023/03/09 03:41:16;;;;;;;27.00;13.50;;;0.60;99.90;;;;;;5057065;28;20554;-73
2023/03/09 03:43:42;;;;;;;28.75;13.98;;;0.60;99.90;;;;;;5034842;28;20052;-73
2023/03/09 03:46:07;;;;;;;25.85;12.82;;;0.60;99.90;;;;;;5055974;28;20524;-72
2023/03/09 03:48:33;;;;;;;28.98;14.68;;;0.80;99.90;;;;;;5057766;28;20036;-73
2023/03/09 03:50:59;;;;;;;29.50;14.40;;;0.60;99.90;;;;;;5055923;28;20037;-74
2023/03/09 03:53:25;;;;;;;26.73;14.10;;;0.60;99.90;;;;;;5036689;28;20055;-73
2023/03/09 03:55:51;;;;;;;32.90;14.45;;;0.60;99.90;;;;;;5037920;28;20128;-73
2023/03/09 03:58:16;;;;;;;31.48;15.70;;;1.40;99.90;;;;;;5044255;28;20063;-72
2023/03/09 04:00:42;;;;;;;28.55;13.98;;;0.50;99.90;;;;;;5039303;28;20071;-72
2023/03/09 04:03:08;;;;;;;28.80;14.60;;;0.60;99.90;;;;;;5038314;28;20047;-73
2023/03/09 04:05:33;;;;;;;29.30;14.52;;;0.50;99.90;;;;;;5058709;28;20048;-73
2023/03/09 04:07:59;;;;;;;32.15;15.02;;;0.50;99.90;;;;;;5039244;28;20048;-73
2023/03/09 04:10:25;;;;;;;31.75;15.30;;;0.50;99.90;;;;;;5043862;28;20528;-72
2023/03/09 04:12:51;;;;;;;34.10;15.65;;;1.00;99.90;;;;;;5029229;28;20043;-73
2023/03/09 04:15:17;;;;;;;30.58;15.32;;;0.50;99.90;;;;;;5041319;28;20037;-73
2023/03/09 04:17:43;;;;;;;32.13;15.77;;;0.50;99.90;;;;;;5020792;28;20051;-73
2023/03/09 04:20:09;;;;;;;30.33;14.90;;;0.50;99.90;;;;;;5057902;28;20639;-73
2023/03/09 04:22:35;;;;;;;30.75;14.93;;;0.50;99.90;;;;;;5045224;28;20051;-72
2023/03/09 04:25:01;;;;;;;33.53;15.38;;;0.50;99.90;;;;;;5036917;28;20044;-72
2023/03/09 04:27:27;;;;;;;30.23;16.05;;;0.50;99.90;;;;;;5026140;28;20052;-72
2023/03/09 04:29:52;;;;;;;32.35;15.32;;;0.50;99.90;;;;;;5040324;28;20053;-73
2023/03/09 04:32:18;;;;;;;30.70;15.50;;;0.50;99.90;;;;;;5038925;28;20473;-73
2023/03/09 04:34:44;;;;;;;32.75;16.52;;;0.50;99.90;;;;;;5043017;28;20033;-73
2023/03/09 04:37:11;;;;;;;32.55;15.50;;;0.50;99.90;;;;;;5055024;28;20045;-73
2023/03/09 04:39:37;;;;;;;36.15;16.25;;;0.50;99.90;;;;;;5038692;28;20056;-73
2023/03/09 04:42:03;;;;;;;32.88;16.33;;;0.50;99.90;;;;;;5023307;28;20463;-73
2023/03/09 04:44:29;;;;;;;33.22;15.95;;;0.50;99.90;;;;;;5058904;28;20037;-73
2023/03/09 04:46:55;;;;;;;31.67;16.38;;;0.50;99.90;;;;;;5039303;28;20052;-74
2023/03/09 04:49:20;;;;;;;31.00;16.02;;;0.90;99.90;;;;;;5037276;28;20546;-74
2023/03/09 04:51:47;;;;;;;34.60;16.88;;;0.50;99.90;;;;;;5035816;28;20175;-73
2023/03/09 04:54:13;;;;;;;33.63;16.38;;;0.50;99.90;;;;;;5040751;28;20098;-74
2023/03/09 04:56:39;;;;;;;32.35;16.23;;;0.80;99.90;;;;;;5042010;28;20083;-73
2023/03/09 04:59:05;;;;;;;31.75;16.15;;;0.70;99.90;;;;;;5034404;28;20037;-72
2023/03/09 05:01:31;;;;;;;33.03;17.27;;;0.50;99.90;;;;;;5041622;28;20037;-72
2023/03/09 05:03:56;;;;;;;34.47;15.88;;;1.50;99.90;;;;;;5039976;28;20040;-74
2023/03/09 05:06:22;;;;;;;34.63;17.63;;;0.50;99.90;;;;;;5037956;28;20048;-73
2023/03/09 05:08:47;;;;;;;34.45;16.58;;;0.50;99.90;;;;;;5034518;28;20483;-74
2023/03/09 05:11:13;;;;;;;37.65;17.58;;;0.50;99.90;;;;;;5022341;28;20051;-73
2023/03/09 05:13:39;;;;;;;32.90;16.88;;;0.50;99.90;;;;;;5021311;28;20083;-72
2023/03/09 05:16:07;;;;;;;37.70;17.83;;;0.50;99.90;;;;;;5037959;28;20107;-73
2023/03/09 05:18:34;;;;;;;34.53;17.17;;;0.50;99.90;;;;;;5037290;28;20124;-73
2023/03/09 05:21:04;;;;;;;31.10;15.90;;;0.50;99.90;;;;;;5037735;28;20045;-72
2023/03/09 05:23:30;;;;;;;33.95;17.00;;;0.50;99.90;;;;;;5039148;28;20049;-73
2023/03/09 05:25:58;;;;;;;34.15;17.15;;;0.80;99.90;;;;;;5036222;28;20055;-73
2023/03/09 05:28:24;;;;;;;30.95;16.48;;;0.50;99.90;;;;;;5033749;28;20183;-73
2023/03/09 05:30:50;;;;;;;34.30;16.40;;;0.50;99.90;;;;;;5039686;28;20072;-72
2023/03/09 05:33:16;;;;;;;37.60;17.48;;;0.70;99.90;;;;;;5039911;28;20048;-72
2023/03/09 05:35:42;;;;;;;36.50;17.83;;;0.50;99.90;;;;;;5039224;28;20045;-73
2023/03/09 05:38:08;;;;;;;36.47;17.17;;;0.50;99.90;;;;;;5042448;28;20052;-73
2023/03/09 05:40:35;;;;;;;34.85;16.63;;;0.50;99.90;;;;;;5040836;28;20059;-73
2023/03/09 05:43:02;;;;;;;34.83;16.60;;;0.40;99.90;;;;;;5040302;28;20760;-73
2023/03/09 05:45:27;;;;;;;36.47;16.67;;;0.40;99.90;;;;;;5035203;28;20052;-72
2023/03/09 05:47:53;;;;;;;34.30;16.90;;;0.40;99.90;;;;;;5034319;28;20410;-73
2023/03/09 05:50:19;;;;;;;32.80;16.73;;;0.40;99.90;;;;;;5037251;28;20483;-73
2023/03/09 05:52:45;;;;;;;34.42;17.35;;;0.40;99.90;;;;;;5036280;28;20053;-73
2023/03/09 05:55:10;;;;;;;31.33;15.90;;;0.40;99.90;;;;;;5038312;28;20048;-73
2023/03/09 05:57:38;;;;;;;35.20;16.63;;;0.40;99.90;;;;;;5035755;28;20115;-73
2023/03/09 06:00:06;;;;;;;34.00;16.45;;;0.40;99.90;;;;;;5034386;28;20049;-73
2023/03/09 06:02:34;;;;;;;34.60;16.52;;;0.50;99.90;;;;;;5037803;28;20048;-72
2023/03/09 06:05:00;;;;;;;38.05;16.15;;;0.50;99.90;;;;;;5036480;28;20516;-72
2023/03/09 06:07:28;;;;;;;35.03;16.38;;;0.50;99.90;;;;;;5031567;28;20052;-72
2023/03/09 06:09:54;;;;;;;34.08;17.67;;;0.40;99.90;;;;;;5047883;28;22568;-72
2023/03/09 06:12:20;;;;;;;36.60;16.77;;;0.40;99.90;;;;;;5046164;28;20067;-74
2023/03/09 06:14:51;;;;;;;32.03;15.57;;;0.50;99.90;;;;;;5037865;28;20063;-73
2023/03/09 06:17:17;;;;;;;34.15;15.90;;;0.50;99.90;;;;;;5045717;28;20037;-73
2023/03/09 06:19:43;;;;;;;31.45;16.17;;;0.50;99.90;;;;;;5041916;28;20707;-72
2023/03/09 06:22:09;;;;;;;32.08;16.02;;;0.50;99.90;;;;;;5039700;28;20525;-73
2023/03/09 06:24:35;;;;;;;36.65;16.58;;;0.50;99.90;;;;;;5037504;28;20077;-74
2023/03/09 06:27:01;;;;;;;34.00;16.80;;;0.50;99.90;;;;;;5033825;28;20052;-72
2023/03/09 06:29:28;;;;;;;32.35;16.92;;;0.50;99.90;;;;;;5044244;28;20105;-73
2023/03/09 06:31:53;;;;;;;30.05;15.45;;;1.60;99.90;;;;;;5060808;28;20044;-73
2023/03/09 06:34:20;;;;;;;31.48;14.98;;;0.50;99.90;;;;;;5036537;28;20103;-73
2023/03/09 06:36:46;;;;;;;35.53;16.05;;;0.50;99.90;;;;;;5054746;28;20476;-74
2023/03/09 06:39:12;;;;;;;32.20;16.45;;;1.30;99.90;;;;;;5021148;28;20509;-74
2023/03/09 06:41:37;;;;;;;31.75;15.75;;;0.50;99.90;;;;;;5052950;28;20072;-73
2023/03/09 06:44:04;;;;;;;30.95;16.02;;;1.40;99.90;;;;;;5040524;28;20041;-73
2023/03/09 06:46:30;;;;;;;36.88;15.45;;;0.60;99.90;;;;;;5036137;28;20672;-74
2023/03/09 06:48:56;;;;;;;28.75;14.77;;;0.50;99.90;;;;;;5009945;28;20208;-73
2023/03/09 06:51:22;;;;;;;30.08;14.98;;;0.50;99.90;;;;;;5013893;28;20106;-73
2023/03/09 06:53:48;;;;;;;27.98;15.05;;;0.60;99.90;;;;;;5033830;28;20501;-74
2023/03/09 06:56:14;;;;;;;31.88;15.40;;;0.60;99.90;;;;;;5045000;28;20059;-74
2023/03/09 06:58:40;;;;;;;28.90;14.32;;;0.60;99.90;;;;;;5016702;28;20495;-72
2023/03/09 07:01:08;;;;;;;27.92;14.65;;;0.60;99.90;;;;;;5040847;28;20060;-73
2023/03/09 07:03:34;;;;;;;31.13;15.32;;;0.90;99.90;;;;;;5053590;28;20048;-72
2023/03/09 07:05:59;;;;;;;29.42;15.55;;;0.60;99.90;;;;;;5057286;28;20043;-72
2023/03/09 07:08:25;;;;;;;35.85;15.23;;;0.60;99.90;;;;;;5057599;28;20402;-73
2023/03/09 07:10:51;;;;;;;31.77;16.00;;;1.50;99.90;;;;;;5054074;28;20053;-72
2023/03/09 07:13:17;;;;;;;30.92;14.77;;;0.70;99.90;;;;;;5042321;28;20056;-73
2023/03/09 07:15:43;;;;;;;27.48;13.60;;;0.70;99.90;;;;;;5039888;28;20052;-74
2023/03/09 07:18:09;;;;;;;31.95;15.85;;;0.80;99.90;;;;;;5040874;28;20078;-74
2023/03/09 07:20:38;;;;;;;28.52;15.15;;;1.80;99.90;;;;;;5038768;28;20045;-74
2023/03/09 07:23:03;;;;;;;26.80;14.35;;;1.00;99.90;;;;;;5054459;28;20174;-74
2023/03/09 07:25:33;;;;;;;26.17;13.15;;;1.00;99.90;;;;;;5033770;28;20178;-73
2023/03/09 07:28:00;;;;;;;26.80;14.15;;;1.00;99.90;;;;;;5050304;28;20088;-73
2023/03/09 07:30:28;;;;;;;26.23;13.73;;;1.40;99.90;;;;;;5035000;28;20595;-74
2023/03/09 07:32:55;;;;;;;26.48;13.57;;;1.20;99.90;;;;;;5051490;28;20047;-73
2023/03/09 07:35:21;;;;;;;24.35;12.35;;;1.10;99.90;;;;;;5048545;28;20485;-74
2023/03/09 07:37:46;;;;;;;27.52;12.50;;;1.10;99.90;;;;;;5033181;28;20047;-74
2023/03/09 07:40:12;;;;;;;27.33;13.55;;;1.10;99.90;;;;;;5043207;28;20071;-74
2023/03/09 07:42:40;;;;;;;24.00;13.32;;;1.10;99.90;;;;;;5057796;28;20729;-73
2023/03/09 07:45:07;;;;;;;22.58;12.68;;;1.10;99.90;;;;;;5029928;28;20857;-74
2023/03/09 07:47:33;;;;;;;24.13;12.75;;;1.10;99.90;;;;;;5010102;28;20044;-74
2023/03/09 07:50:00;;;;;;;23.73;12.90;;;1.20;99.90;;;;;;5028761;28;20045;-75
2023/03/09 07:52:30;;;;;;;24.05;13.13;;;1.50;99.90;;;;;;5045869;28;20044;-74
2023/03/09 07:55:00;;;;;;;24.88;12.90;;;1.40;99.90;;;;;;5047047;28;20044;-73
2023/03/09 07:57:31;;;;;;;22.38;11.90;;;1.40;99.90;;;;;;5056162;28;20498;-74
2023/03/09 07:59:57;;;;;;;25.00;12.43;;;1.50;99.90;;;;;;5052122;28;20044;-75
2023/03/09 08:02:23;;;;;;;21.77;12.23;;;1.60;99.90;;;;;;5025268;28;20051;-75
2023/03/09 08:04:48;;;;;;;21.80;11.45;;;2.50;99.90;;;;;;5044602;28;20093;-75
2023/03/09 08:07:14;;;;;;;22.13;11.57;;;1.70;99.90;;;;;;5047990;28;20518;-75
2023/03/09 08:09:40;;;;;;;19.92;11.10;;;2.40;99.90;;;;;;5038418;28;20626;-72
2023/03/09 08:12:09;;;;;;;19.83;11.63;;;1.80;99.90;;;;;;5032696;28;20111;-74
2023/03/09 08:14:35;;;;;;;20.42;11.55;;;1.80;99.90;;;;;;5035887;28;20095;-73
2023/03/09 08:17:03;;;;;;;22.23;11.77;;;2.00;99.90;;;;;;5053861;28;20436;-74
2023/03/09 08:19:29;;;;;;;21.05;11.50;;;1.90;99.90;;;;;;5017018;28;20110;-73
2023/03/09 08:21:56;;;;;;;19.45;11.75;;;1.90;99.90;;;;;;5038048;28;20036;-74
2023/03/09 08:24:22;;;;;;;18.80;10.80;;;2.80;99.90;;;;;;5061221;28;20831;-74
2023/03/09 08:26:48;;;;;;;20.35;10.73;;;2.00;99.90;;;;;;5044520;28;20052;-75
2023/03/09 08:29:14;;;;;;;18.23;10.38;;;2.00;99.90;;;;;;5033026;28;20101;-75
2023/03/09 08:31:40;;;;;;;20.63;10.63;;;2.00;99.90;;;;;;5049799;28;20131;-75
2023/03/09 08:34:10;;;;;;;18.73;10.35;;;2.10;99.90;;;;;;5050832;28;20056;-75
2023/03/09 08:36:36;;;;;;;17.70;10.00;;;2.10;99.90;;;;;;5052987;28;20484;-74
2023/03/09 08:39:02;;;;;;;20.17;10.52;;;2.20;99.90;;;;;;5051219;28;20048;-76
2023/03/09 08:41:28;;;;;;;19.23;9.63;;;2.20;99.90;;;;;;5031911;28;20151;-73
2023/03/09 08:43:56;;;;;;;17.63;9.88;;;2.40;99.90;;;;;;5032676;28;20130;-74
2023/03/09 08:46:21;;;;;;;18.92;9.63;;;2.30;99.90;;;;;;5053709;28;20788;-74
2023/03/09 08:48:48;;;;;;;17.23;9.10;;;2.30;99.90;;;;;;5026418;28;20049;-74
2023/03/09 08:51:14;;;;;;;16.85;9.65;;;2.40;99.90;;;;;;5035418;28;20053;-73
2023/03/09 08:53:40;;;;;;;17.10;9.80;;;2.40;99.90;;;;;;5031421;28;20063;-73
2023/03/09 08:56:08;;;;;;;17.20;9.90;;;2.50;99.90;;;;;;5039075;28;20037;-73
2023/03/09 08:58:35;;;;;;;16.90;9.25;;;2.50;99.90;;;;;;5040699;28;20048;-74
2023/03/09 09:01:03;;;;;;;16.25;10.00;;;2.60;99.90;;;;;;5040151;28;20040;-75
2023/03/09 09:03:29;;;;;;;16.08;9.35;;;2.90;99.90;;;;;;5039109;28;20051;-74
2023/03/09 09:05:56;;;;;;;17.08;8.98;;;2.70;99.90;;;;;;5041553;28;20571;-74
2023/03/09 09:08:22;;;;;;;14.32;8.38;;;2.70;99.90;;;;;;5058589;28;20485;-75
2023/03/09 09:10:48;;;;;;;15.43;8.55;;;2.10;99.90;;;;;;5032880;28;20040;-76
2023/03/09 09:13:13;;;;;;;14.55;8.30;;;3.30;99.90;;;;;;5036433;28;20082;-75
2023/03/09 09:15:41;;;;;;;13.50;7.55;;;3.00;99.90;;;;;;5031244;28;20787;-75
2023/03/09 09:18:08;;;;;;;12.50;7.13;;;3.10;99.90;;;;;;5038939;28;20103;-76
2023/03/09 09:20:33;;;;;;;12.63;7.25;;;3.10;99.90;;;;;;5050649;28;20059;-75
2023/03/09 09:22:59;;;;;;;13.13;7.55;;;3.10;99.90;;;;;;5038802;28;20041;-75
2023/03/09 09:25:25;;;;;;;14.40;8.25;;;3.10;99.90;;;;;;5052124;28;20120;-74
2023/03/09 09:27:51;;;;;;;13.88;8.05;;;3.00;99.90;;;;;;5028896;28;20520;-75
2023/03/09 09:30:20;;;;;;;13.45;8.23;;;3.10;99.90;;;;;;5026535;28;20056;-73
2023/03/09 09:32:46;;;;;;;14.27;7.32;;;3.00;99.90;;;;;;5033484;28;20040;-74
2023/03/09 09:35:12;;;;;;;14.18;7.93;;;3.00;99.90;;;;;;5034108;28;20685;-75
2023/03/09 09:37:40;;;;;;;13.38;7.85;;;3.00;99.90;;;;;;5035615;28;20047;-74
2023/03/09 09:40:14;;;;;;;14.48;8.27;;;3.20;99.90;;;;;;5031933;28;20191;-75
2023/03/09 09:42:43;;;;;;;15.95;8.90;;;3.00;99.90;;;;;;5055827;28;20513;-75
2023/03/09 09:45:25;;;;;;;14.38;8.48;;;3.00;99.90;;;;;;5041688;28;20608;-73
2023/03/09 09:47:52;;;;;;;13.55;8.45;;;3.00;99.90;;;;;;5042938;28;20466;-74
2023/03/09 09:50:19;;;;;;;15.07;8.82;;;3.00;99.90;;;;;;5042606;28;20143;-74
2023/03/09 09:53:21;;;;;;;12.57;7.60;;;3.10;99.90;;;;;;5041982;28;20106;-74
2023/03/09 09:55:51;;;;;;;12.98;8.23;;;3.20;99.90;;;;;;5045352;28;20041;-75
2023/03/09 09:58:40;;;;;;;14.63;7.85;;;3.30;99.90;;;;;;5064978;28;20114;-74
2023/03/09 10:01:23;;;;;;;13.25;8.05;;;3.40;99.90;;;;;;5020787;28;20226;-74
2023/03/09 10:03:51;;;;;;;12.93;7.97;;;3.50;99.90;;;;;;5037921;28;20745;-74
2023/03/09 10:06:22;;;;;;;15.85;7.80;;;3.50;99.90;;;;;;5038259;28;20040;-74
2023/03/09 10:08:53;;;;;;;14.03;8.07;;;3.50;99.90;;;;;;5018595;28;20062;-75
2023/03/09 10:11:25;;;;;;;15.20;7.90;;;3.50;99.90;;;;;;5048436;28;20110;-75
2023/03/09 10:13:58;;;;;;;13.45;7.43;;;3.60;99.90;;;;;;5021449;28;20056;-75
2023/03/09 10:16:29;;;;;;;11.25;7.03;;;3.50;99.90;;;;;;5058713;28;20047;-75
2023/03/09 10:18:59;;;;;;;11.90;7.30;;;3.50;99.90;;;;;;5026633;28;20541;-75
2023/03/09 10:21:40;;;;;;;12.23;7.13;;;3.50;99.90;;;;;;5037902;28;20322;-74
2023/03/09 10:24:28;;;;;;;13.75;7.68;;;3.50;99.90;;;;;;5042195;28;20677;-74
2023/03/09 10:27:01;;;;;;;12.77;6.95;;;3.50;99.90;;;;;;5033405;28;20835;-74
2023/03/09 10:29:48;;;;;;;11.63;6.75;;;3.60;99.90;;;;;;5037345;28;20084;-73
2023/03/09 10:32:21;;;;;;;11.07;6.75;;;3.70;99.90;;;;;;5066537;28;20041;-74
2023/03/09 10:35:04;;;;;;;11.27;6.43;;;3.80;99.90;;;;;;5060270;28;20115;-73
2023/03/09 10:37:34;;;;;;;11.98;5.93;;;3.90;99.90;;;;;;5058671;28;20110;-73
2023/03/09 10:40:15;;;;;;;11.07;5.33;;;4.00;99.90;;;;;;5061756;28;20455;-74
2023/03/09 10:42:41;;;;;;;11.80;6.95;;;3.90;99.90;;;;;;5044845;28;20056;-73
2023/03/09 10:45:23;;;;;;;11.70;7.00;;;3.90;99.90;;;;;;5055608;28;20040;-73
2023/03/09 10:47:51;;;;;;;10.52;6.03;;;3.90;99.90;;;;;;5055046;28;20037;-73
2023/03/09 10:50:17;;;;;;;10.50;6.53;;;3.90;99.90;;;;;;5027029;28;20128;-73
2023/03/09 10:52:43;;;;;;;9.95;5.47;;;3.90;99.90;;;;;;5045858;28;20079;-74
2023/03/09 10:55:35;;;;;;;11.82;5.50;;;3.90;99.90;;;;;;5060610;28;20072;-72
2023/03/09 10:58:13;;;;;;;11.50;5.95;;;3.90;99.90;;;;;;5060642;28;20493;-74
2023/03/09 11:00:58;;;;;;;11.18;6.18;;;3.90;99.90;;;;;;5059118;28;20477;-74
2023/03/09 11:03:30;;;;;;;10.32;5.72;;;4.00;99.90;;;;;;5039237;28;20044;-74
2023/03/09 11:06:26;;;;;;;13.20;5.80;;;4.10;99.90;;;;;;5039782;28;20059;-73
2023/03/09 11:09:09;;;;;;;11.32;6.10;;;4.10;99.90;;;;;;5030695;28;20117;-73
2023/03/09 11:11:39;;;;;;;8.77;5.03;;;4.50;99.90;;;;;;5052161;28;20060;-73
2023/03/09 11:14:18;;;;;;;10.73;5.53;;;4.10;99.90;;;;;;5037467;28;20041;-74
2023/03/09 11:16:53;;;;;;;9.63;5.68;;;4.10;99.90;;;;;;5045212;28;20048;-74
2023/03/09 11:19:20;;;;;;;10.77;5.57;;;4.10;99.90;;;;;;5060974;28;20747;-74
2023/03/09 11:22:00;;;;;;;10.88;5.90;;;4.10;99.90;;;;;;5060676;28;20041;-73
2023/03/09 11:24:37;;;;;;;9.47;5.50;;;4.10;99.90;;;;;;5039236;28;20554;-73
2023/03/09 11:27:31;;;;;;;10.25;5.28;;;4.00;99.90;;;;;;5045158;28;20489;-74
2023/03/09 11:30:02;;;;;;;9.60;5.10;;;4.00;99.90;;;;;;5032951;28;20284;-74
2023/03/09 11:32:27;;;;;;;10.38;5.47;;;4.00;99.90;;;;;;5031450;28;20043;-74
2023/03/09 11:34:53;;;;;;;10.43;5.57;;;4.00;99.90;;;;;;5051117;28;20441;-73
2023/03/09 11:37:44;;;;;;;8.98;4.90;;;4.20;99.90;;;;;;5036167;28;20048;-74
2023/03/09 11:40:15;;;;;;;8.73;4.83;;;4.10;99.90;;;;;;5040792;28;20568;-74
2023/03/09 11:42:56;;;;;;;8.40;5.00;;;4.00;99.90;;;;;;5040205;28;20297;-74
2023/03/09 11:45:25;;;;;;;9.82;5.18;;;4.00;99.90;;;;;;5042113;28;20465;-73
2023/03/09 11:47:52;;;;;;;9.20;5.20;;;4.10;99.90;;;;;;5039912;28;20136;-73
2023/03/09 11:50:48;;;;;;;9.25;5.18;;;4.10;99.90;;;;;;5037584;28;20091;-73
2023/03/09 11:53:28;;;;;;;9.73;5.43;;;4.10;99.90;;;;;;5062137;28;20100;-72
2023/03/09 11:55:59;;;;;;;10.15;5.53;;;4.10;99.90;;;;;;5058985;28;20041;-73
2023/03/09 11:58:37;;;;;;;10.20;5.70;;;4.20;99.90;;;;;;5059688;28;20498;-73
2023/03/09 12:01:23;;;;;;;12.20;5.28;;;4.20;99.90;;;;;;5041227;28;20047;-72
2023/03/09 12:04:02;;;;;;;10.00;5.63;;;4.20;99.90;;;;;;5028254;28;20102;-73
2023/03/09 12:06:50;;;;;;;10.63;5.68;;;4.20;99.90;;;;;;5042059;28;20043;-73
2023/03/09 12:09:27;;;;;;;9.95;5.75;;;4.20;99.90;;;;;;5046538;28;20067;-73
2023/03/09 12:12:20;;;;;;;11.63;5.90;;;4.20;99.90;;;;;;5043536;28;20707;-74
2023/03/09 12:14:52;;;;;;;9.80;5.65;;;4.20;99.90;;;;;;5054748;28;20750;-73
2023/03/09 12:17:23;;;;;;;10.52;5.32;;;4.30;99.90;;;;;;5053011;28;20072;-72
2023/03/09 12:19:52;;;;;;;11.35;6.00;;;4.30;99.90;;;;;;5065690;28;20044;-72
2023/03/09 12:22:36;;;;;;;10.35;5.55;;;4.30;99.90;;;;;;5045973;28;20052;-73
2023/03/09 12:25:16;;;;;;;9.55;5.32;;;4.30;99.90;;;;;;5060109;28;20049;-73
2023/03/09 12:28:08;;;;;;;8.88;4.75;;;4.30;99.90;;;;;;5058401;28;20420;-73
2023/03/09 12:30:50;;;;;;;9.45;5.45;;;4.40;99.90;;;;;;5021999;28;20065;-73
2023/03/09 12:33:41;;;;;;;9.48;4.93;;;4.40;99.90;;;;;;5058405;28;20044;-73
2023/03/09 12:36:42;;;;;;;9.07;4.75;;;4.40;99.90;;;;;;5044703;28;20051;-74
2023/03/09 12:39:23;;;;;;;10.13;5.30;;;4.40;99.90;;;;;;5066873;28;20041;-74
2023/03/09 12:41:57;;;;;;;10.48;5.20;;;4.80;99.90;;;;;;5062452;28;20048;-73
2023/03/09 12:44:49;;;;;;;11.82;5.45;;;4.40;99.90;;;;;;5045735;28;20576;-74
2023/03/09 12:47:33;;;;;;;10.75;5.70;;;4.30;99.90;;;;;;5041897;28;20468;-73
2023/03/09 12:50:00;;;;;;;9.70;5.38;;;4.30;99.90;;;;;;5060221;28;20463;-74
2023/03/09 12:52:45;;;;;;;12.48;6.43;;;4.30;99.90;;;;;;5044067;28;20132;-73